createdAt,value
2018-06-15T00:00:07.542Z,8.55
2018-06-15T00:02:35.859Z,8.60
2018-06-15T00:05:04.325Z,8.40
2018-06-15T00:07:31.907Z,8.25
2018-06-15T00:10:00.291Z,8.30
2018-06-15T00:12:28.089Z,8.20
2018-06-15T00:14:55.865Z,8.58
2018-06-15T00:17:23.454Z,8.60
2018-06-15T00:19:51.038Z,8.38
2018-06-15T00:22:18.590Z,8.55
2018-06-15T00:24:46.214Z,7.83
2018-06-15T00:27:13.803Z,8.73
2018-06-15T00:29:41.350Z,8.50
2018-06-15T00:32:08.906Z,8.68
2018-06-15T00:34:36.498Z,8.80
2018-06-15T00:37:04.088Z,8.40
2018-06-15T00:39:31.650Z,9.53
2018-06-15T00:41:59.238Z,8.67
2018-06-15T00:44:26.831Z,8.97
2018-06-15T00:46:54.405Z,8.95
2018-06-15T00:49:21.951Z,9.43
2018-06-15T00:51:49.518Z,9.73
2018-06-15T00:54:17.090Z,9.83
2018-06-15T00:56:50.154Z,9.98
2018-06-15T00:59:17.714Z,9.98
2018-06-15T01:01:45.532Z,9.85
2018-06-15T01:04:13.080Z,9.50
2018-06-15T01:06:40.728Z,9.70
2018-06-15T01:09:08.854Z,10.25
2018-06-15T01:11:36.478Z,10.10
2018-06-15T01:14:04.047Z,10.00
2018-06-15T01:16:31.619Z,9.70
2018-06-15T01:18:59.270Z,9.40
2018-06-15T01:21:26.818Z,10.50
2018-06-15T01:23:54.426Z,10.53
2018-06-15T01:26:21.986Z,10.70
2018-06-15T01:28:49.534Z,11.10
2018-06-15T01:31:17.103Z,12.28
2018-06-15T01:33:44.675Z,11.45
2018-06-15T01:36:12.238Z,11.38
2018-06-15T01:38:39.831Z,11.90
2018-06-15T01:41:07.450Z,11.77
2018-06-15T01:43:35.022Z,11.90
2018-06-15T01:46:02.589Z,12.27
2018-06-15T01:48:30.166Z,11.73
2018-06-15T01:50:57.761Z,11.93
2018-06-15T01:53:25.314Z,12.47
2018-06-15T01:55:52.938Z,13.13
2018-06-15T01:58:20.506Z,12.47
2018-06-15T02:00:48.102Z,12.47
2018-06-15T02:03:15.674Z,12.50
2018-06-15T02:05:43.256Z,12.90
2018-06-15T02:08:10.830Z,13.83
2018-06-15T02:10:38.401Z,13.10
2018-06-15T02:13:06.010Z,13.13
2018-06-15T02:15:33.586Z,13.07
2018-06-15T02:18:01.146Z,13.80
2018-06-15T02:20:29.039Z,13.63
2018-06-15T02:22:56.686Z,13.67
2018-06-15T02:25:24.247Z,13.87
2018-06-15T02:27:51.802Z,14.03
2018-06-15T02:30:19.381Z,13.63
2018-06-15T02:32:47.123Z,14.00
2018-06-15T02:35:14.689Z,14.05
2018-06-15T02:37:42.454Z,13.83
2018-06-15T02:40:10.052Z,14.93
2018-06-15T02:42:38.397Z,14.05
2018-06-15T02:45:05.998Z,13.90
2018-06-15T02:47:33.567Z,14.00
2018-06-15T02:50:01.126Z,14.43
2018-06-15T02:52:28.686Z,14.60
2018-06-15T02:54:56.275Z,13.83
2018-06-15T02:57:23.878Z,15.00
2018-06-15T02:59:51.452Z,13.10
2018-06-15T03:02:19.030Z,13.13
2018-06-15T03:04:46.612Z,13.40
2018-06-15T03:07:14.198Z,12.77
2018-06-15T03:09:41.800Z,13.83
2018-06-15T03:12:09.374Z,13.87
2018-06-15T03:14:36.979Z,14.07
2018-06-15T03:17:04.539Z,14.20
2018-06-15T03:19:32.169Z,13.90
2018-06-15T03:21:59.724Z,13.50
2018-06-15T03:24:27.294Z,13.35
2018-06-15T03:26:55.158Z,13.63
2018-06-15T03:29:22.746Z,13.62
2018-06-15T03:31:50.319Z,13.57
2018-06-15T03:34:17.937Z,13.37
2018-06-15T03:36:45.510Z,12.63
2018-06-15T03:39:13.077Z,13.03
2018-06-15T03:41:41.024Z,12.70
2018-06-15T03:44:08.781Z,12.07
2018-06-15T03:46:37.358Z,12.05
2018-06-15T03:49:04.952Z,11.60
2018-06-15T03:51:32.570Z,11.18
2018-06-15T03:54:00.165Z,11.55
2018-06-15T03:56:27.738Z,11.90
2018-06-15T03:58:55.343Z,10.72
2018-06-15T04:01:22.921Z,11.03
2018-06-15T04:03:50.563Z,10.20
2018-06-15T04:06:18.127Z,9.90
2018-06-15T04:08:45.686Z,10.00
2018-06-15T04:11:13.269Z,9.70
2018-06-15T04:13:40.859Z,8.88
2018-06-15T04:16:08.626Z,8.88
2018-06-15T04:18:36.186Z,8.70
2018-06-15T04:21:03.789Z,8.98
2018-06-15T04:23:31.362Z,9.48
2018-06-15T04:25:59.068Z,7.75
2018-06-15T04:28:26.734Z,8.20
2018-06-15T04:30:54.314Z,8.15
2018-06-15T04:33:21.906Z,7.80
2018-06-15T04:35:49.466Z,8.18
2018-06-15T04:38:17.013Z,8.20
2018-06-15T04:40:44.607Z,7.95
2018-06-15T04:43:12.175Z,7.55
2018-06-15T04:45:39.751Z,7.83
2018-06-15T04:48:07.354Z,7.20
2018-06-15T04:50:34.911Z,6.92
2018-06-15T04:53:02.482Z,7.00
2018-06-15T04:55:30.031Z,7.33
2018-06-15T04:57:57.594Z,7.08
2018-06-15T05:00:25.154Z,6.15
2018-06-15T05:02:52.707Z,5.83
2018-06-15T05:05:20.303Z,5.28
2018-06-15T05:07:47.879Z,7.08
2018-06-15T05:10:15.450Z,6.53
2018-06-15T05:12:43.042Z,5.58
2018-06-15T05:15:10.671Z,5.72
2018-06-15T05:17:38.217Z,5.75
2018-06-15T05:20:05.834Z,5.20
2018-06-15T05:22:33.498Z,4.97
2018-06-15T05:25:01.070Z,4.97
2018-06-15T05:27:29.072Z,4.53
2018-06-15T05:29:56.646Z,6.03
2018-06-15T05:32:24.609Z,4.55
2018-06-15T05:34:52.173Z,6.40
2018-06-15T05:37:20.132Z,4.60
2018-06-15T05:39:48.201Z,5.30
2018-06-15T05:42:15.782Z,5.78
2018-06-15T05:44:43.379Z,5.75
2018-06-15T05:47:10.974Z,6.97
2018-06-15T05:49:38.541Z,7.62
2018-06-15T05:52:07.094Z,5.72
2018-06-15T05:54:34.648Z,4.72
2018-06-15T05:57:02.212Z,7.37
2018-06-15T05:59:29.807Z,7.00
2018-06-15T06:01:57.384Z,7.33
2018-06-15T06:04:25.090Z,7.40
2018-06-15T06:06:52.654Z,7.95
2018-06-15T06:09:20.234Z,7.97
2018-06-15T06:11:47.799Z,6.92
2018-06-15T06:14:15.835Z,5.58
2018-06-15T06:16:43.753Z,5.83
2018-06-15T06:19:11.323Z,6.37
2018-06-15T06:21:38.918Z,5.60
2018-06-15T06:24:06.478Z,5.22
2018-06-15T06:26:34.059Z,6.55
2018-06-15T06:29:01.610Z,5.83
2018-06-15T06:31:29.178Z,5.65
2018-06-15T06:33:56.718Z,5.97
2018-06-15T06:36:24.278Z,6.53
2018-06-15T06:38:51.887Z,6.03
2018-06-15T06:41:19.506Z,6.15
2018-06-15T06:43:47.132Z,5.25
2018-06-15T06:46:14.704Z,6.10
2018-06-15T06:48:42.280Z,6.42
2018-06-15T06:51:09.838Z,5.97
2018-06-15T06:53:37.439Z,5.22
2018-06-15T06:56:05.031Z,4.95
2018-06-15T06:58:32.585Z,4.55
2018-06-15T07:01:00.192Z,4.55
2018-06-15T07:03:27.780Z,5.17
2018-06-15T07:05:55.446Z,5.35
2018-06-15T07:08:23.015Z,4.67
2018-06-15T07:10:50.602Z,5.00
2018-06-15T07:13:18.171Z,5.25
2018-06-15T07:15:45.758Z,5.12
2018-06-15T07:18:13.314Z,4.90
2018-06-15T07:20:40.887Z,5.17
2018-06-15T07:23:08.478Z,5.80
2018-06-15T07:25:36.056Z,4.70
2018-06-15T07:28:03.618Z,4.58
2018-06-15T07:30:31.179Z,5.00
2018-06-15T07:32:58.982Z,4.53
2018-06-15T07:35:26.699Z,4.58
2018-06-15T07:37:54.797Z,4.83
2018-06-15T07:40:22.679Z,4.22
2018-06-15T07:42:50.438Z,4.45
2018-06-15T07:45:18.361Z,4.00
2018-06-15T07:47:45.927Z,3.95
2018-06-15T07:50:13.517Z,4.37
2018-06-15T07:52:41.110Z,4.10
2018-06-15T07:55:08.697Z,4.08
2018-06-15T07:57:36.269Z,4.92
2018-06-15T08:00:03.839Z,4.62
2018-06-15T08:02:31.426Z,4.15
2018-06-15T08:04:59.002Z,4.37
2018-06-15T08:07:26.777Z,4.62
2018-06-15T08:09:54.339Z,4.75
2018-06-15T08:12:21.923Z,4.20
2018-06-15T08:14:49.487Z,4.08
2018-06-15T08:17:17.067Z,3.85
2018-06-15T08:19:44.638Z,4.28
2018-06-15T08:22:12.208Z,3.83
2018-06-15T08:24:39.786Z,3.72
2018-06-15T08:27:07.355Z,4.22
2018-06-15T08:29:34.943Z,3.90
2018-06-15T08:32:03.436Z,4.10
2018-06-15T08:34:31.195Z,4.53
2018-06-15T08:36:59.575Z,4.20
2018-06-15T08:39:27.170Z,4.40
2018-06-15T08:41:54.717Z,4.87
2018-06-15T08:44:22.289Z,3.67
2018-06-15T08:46:49.866Z,3.30
2018-06-15T08:49:17.458Z,4.28
2018-06-15T08:51:45.031Z,3.52
2018-06-15T08:54:12.594Z,4.10
2018-06-15T08:56:40.166Z,4.30
2018-06-15T08:59:07.743Z,4.55
2018-06-15T09:01:35.306Z,5.42
2018-06-15T09:04:03.141Z,13.03
2018-06-15T09:06:30.950Z,6.90
2018-06-15T09:08:58.534Z,4.67
2018-06-15T09:11:26.130Z,9.60
2018-06-15T09:13:53.698Z,3.72
2018-06-15T09:16:21.282Z,9.83
2018-06-15T09:18:48.844Z,7.00
2018-06-15T09:21:16.430Z,7.33
2018-06-15T09:23:44.050Z,6.80
2018-06-15T09:26:11.654Z,4.80
2018-06-15T09:28:39.687Z,4.58
2018-06-15T09:31:07.259Z,5.55
2018-06-15T09:33:34.821Z,4.97
2018-06-15T09:36:02.395Z,4.70
2018-06-15T09:38:29.955Z,4.95
2018-06-15T09:40:57.559Z,4.80
2018-06-15T09:43:25.147Z,3.75
2018-06-15T09:45:52.706Z,4.42
2018-06-15T09:48:20.263Z,4.37
2018-06-15T09:50:47.814Z,4.20
2018-06-15T09:53:15.370Z,4.20
2018-06-15T09:55:42.942Z,4.50
2018-06-15T09:58:10.491Z,4.45
2018-06-15T10:00:43.316Z,3.80
2018-06-15T10:03:10.927Z,3.85
2018-06-15T10:05:38.486Z,4.28
2018-06-15T10:08:06.079Z,4.15
2018-06-15T10:10:33.650Z,3.77
2018-06-15T10:13:01.250Z,4.00
2018-06-15T10:15:29.236Z,4.15
2018-06-15T10:17:56.916Z,3.67
2018-06-15T10:20:24.499Z,3.65
2018-06-15T10:22:52.079Z,3.85
2018-06-15T10:25:19.643Z,3.85
2018-06-15T10:27:47.210Z,4.00
2018-06-15T10:30:14.754Z,4.10
2018-06-15T10:32:42.365Z,4.08
2018-06-15T10:35:09.916Z,4.60
2018-06-15T10:37:37.489Z,3.80
2018-06-15T10:40:05.071Z,4.05
2018-06-15T10:42:32.645Z,3.90
2018-06-15T10:45:00.198Z,4.30
2018-06-15T10:47:27.762Z,3.80
2018-06-15T10:49:55.520Z,4.00
2018-06-15T10:52:23.119Z,3.55
2018-06-15T10:54:50.666Z,3.90
2018-06-15T10:57:18.274Z,4.03
2018-06-15T10:59:48.701Z,4.30
2018-06-15T11:02:17.767Z,3.95
2018-06-15T11:04:46.830Z,4.30
2018-06-15T11:07:14.748Z,3.80
2018-06-15T11:09:42.821Z,4.30
2018-06-15T11:12:10.386Z,3.98
2018-06-15T11:14:37.985Z,4.42
2018-06-15T11:17:05.578Z,3.90
2018-06-15T11:19:33.142Z,3.98
2018-06-15T11:22:00.759Z,3.85
2018-06-15T11:24:28.704Z,3.85
2018-06-15T11:26:56.542Z,4.12
2018-06-15T11:29:24.126Z,3.80
2018-06-15T11:31:51.675Z,3.95
2018-06-15T11:34:19.245Z,4.12
2018-06-15T11:36:46.798Z,4.33
2018-06-15T11:39:14.364Z,3.87
2018-06-15T11:41:41.922Z,3.80
2018-06-15T11:44:09.503Z,4.20
2018-06-15T11:46:37.038Z,4.33
2018-06-15T11:49:04.620Z,3.90
2018-06-15T11:51:32.194Z,4.03
2018-06-15T11:53:59.780Z,4.05
2018-06-15T11:56:27.582Z,3.72
2018-06-15T11:58:55.912Z,4.45
2018-06-15T12:01:23.727Z,3.62
2018-06-15T12:03:51.799Z,3.60
2018-06-15T12:06:19.517Z,4.00
2018-06-15T12:08:47.452Z,3.85
2018-06-15T12:11:15.399Z,3.95
2018-06-15T12:13:42.950Z,4.17
2018-06-15T12:16:10.555Z,3.98
2018-06-15T12:18:38.126Z,4.00
2018-06-15T12:21:05.732Z,3.98
2018-06-15T12:23:33.295Z,4.00
2018-06-15T12:26:00.840Z,3.70
2018-06-15T12:28:29.449Z,4.08
2018-06-15T12:30:57.150Z,3.50
2018-06-15T12:33:24.714Z,3.60
2018-06-15T12:35:52.739Z,3.52
2018-06-15T12:38:20.830Z,3.67
2018-06-15T12:40:48.397Z,3.98
2018-06-15T12:43:15.986Z,3.72
2018-06-15T12:45:43.607Z,3.60
2018-06-15T12:48:11.219Z,3.90
2018-06-15T12:50:38.778Z,3.40
2018-06-15T12:53:06.334Z,3.70
2018-06-15T12:55:33.887Z,3.60
2018-06-15T12:58:01.498Z,3.55
2018-06-15T13:00:29.056Z,3.45
2018-06-15T13:02:56.661Z,3.75
2018-06-15T13:05:24.275Z,3.50
2018-06-15T13:07:51.854Z,3.75
2018-06-15T13:10:19.408Z,3.40
2018-06-15T13:12:46.967Z,3.87
2018-06-15T13:15:14.531Z,3.25
2018-06-15T13:17:42.098Z,3.65
2018-06-15T13:20:09.654Z,3.50
2018-06-15T13:22:37.263Z,3.37
2018-06-15T13:25:04.806Z,3.58
2018-06-15T13:27:32.462Z,3.50
2018-06-15T13:30:00.294Z,3.40
2018-06-15T13:32:27.846Z,3.52
2018-06-15T13:34:55.558Z,3.65
2018-06-15T13:37:23.111Z,3.83
2018-06-15T13:39:50.662Z,3.50
2018-06-15T13:42:18.240Z,3.40
2018-06-15T13:44:45.794Z,3.83
2018-06-15T13:47:13.363Z,3.50
2018-06-15T13:49:40.918Z,3.62
2018-06-15T13:52:08.469Z,3.80
2018-06-15T13:54:36.022Z,3.60
2018-06-15T13:57:03.578Z,3.47
2018-06-15T13:59:31.198Z,3.33
2018-06-15T14:01:58.779Z,3.50
2018-06-15T14:04:26.394Z,3.70
2018-06-15T14:06:53.961Z,3.65
2018-06-15T14:09:26.680Z,3.47
2018-06-15T14:11:54.318Z,3.27
2018-06-15T14:14:21.902Z,3.15
2018-06-15T14:16:49.471Z,3.37
2018-06-15T14:19:17.062Z,3.83
2018-06-15T14:21:44.634Z,3.35
2018-06-15T14:24:12.248Z,3.40
2018-06-15T14:26:39.818Z,3.87
2018-06-15T14:29:07.360Z,3.55
2018-06-15T14:31:34.970Z,3.47
2018-06-15T14:34:02.562Z,3.80
2018-06-15T14:36:30.235Z,3.65
2018-06-15T14:38:57.806Z,3.50
2018-06-15T14:41:25.578Z,3.20
2018-06-15T14:43:53.246Z,3.40
2018-06-15T14:46:21.003Z,3.30
2018-06-15T14:48:48.627Z,3.50
2018-06-15T14:51:16.215Z,3.40
2018-06-15T14:53:43.795Z,2.98
2018-06-15T14:56:11.350Z,4.03
2018-06-15T14:58:38.923Z,3.50
2018-06-15T15:01:06.486Z,3.22
2018-06-15T15:03:34.090Z,3.40
2018-06-15T15:06:01.679Z,3.70
2018-06-15T15:08:29.342Z,7.00
2018-06-15T15:10:57.091Z,7.17
2018-06-15T15:13:24.663Z,5.15
2018-06-15T15:15:52.247Z,3.55
2018-06-15T15:18:20.496Z,3.85
2018-06-15T15:20:48.101Z,4.85
2018-06-15T15:23:15.720Z,2.75
2018-06-15T15:25:43.361Z,4.42
2018-06-15T15:28:10.930Z,3.90
2018-06-15T15:30:38.529Z,4.45
2018-06-15T15:33:06.157Z,3.27
2018-06-15T15:35:33.739Z,3.42
2018-06-15T15:38:01.354Z,4.00
2018-06-15T15:40:29.030Z,3.00
2018-06-15T15:42:56.955Z,3.45
2018-06-15T15:45:24.631Z,3.83
2018-06-15T15:47:52.254Z,3.40
2018-06-15T15:50:19.933Z,3.62
2018-06-15T15:52:47.590Z,2.80
2018-06-15T15:55:15.170Z,3.30
2018-06-15T15:57:42.817Z,3.42
2018-06-15T16:00:10.438Z,3.60
2018-06-15T16:02:38.512Z,3.60
2018-06-15T16:05:06.584Z,3.95
2018-06-15T16:07:34.177Z,3.15
2018-06-15T16:10:01.838Z,3.62
2018-06-15T16:12:29.878Z,3.33
2018-06-15T16:14:57.466Z,3.52
2018-06-15T16:17:25.039Z,3.92
2018-06-15T16:19:52.864Z,3.35
2018-06-15T16:22:20.779Z,3.87
2018-06-15T16:24:48.674Z,3.52
2018-06-15T16:27:16.522Z,4.15
2018-06-15T16:29:44.059Z,4.17
2018-06-15T16:32:11.618Z,3.75
2018-06-15T16:34:39.163Z,4.08
2018-06-15T16:37:06.712Z,4.60
2018-06-15T16:39:34.298Z,4.12
2018-06-15T16:42:01.885Z,5.28
2018-06-15T16:44:29.451Z,4.72
2018-06-15T16:46:57.040Z,4.08
2018-06-15T16:49:24.621Z,4.25
2018-06-15T16:51:52.186Z,4.12
2018-06-15T16:54:19.742Z,4.17
2018-06-15T16:56:47.326Z,3.90
2018-06-15T16:59:14.891Z,4.50
2018-06-15T17:01:42.692Z,4.80
2018-06-15T17:04:10.270Z,4.65
2018-06-15T17:06:38.549Z,4.50
2018-06-15T17:09:06.801Z,4.75
2018-06-15T17:11:34.394Z,4.58
2018-06-15T17:14:01.992Z,4.90
2018-06-15T17:16:29.942Z,5.55
2018-06-15T17:18:57.549Z,5.22
2018-06-15T17:21:25.166Z,4.90
2018-06-15T17:23:52.731Z,5.72
2018-06-15T17:26:20.350Z,3.62
2018-06-15T17:28:48.021Z,5.22
2018-06-15T17:31:15.642Z,4.37
2018-06-15T17:33:43.266Z,4.75
2018-06-15T17:36:10.839Z,4.83
2018-06-15T17:38:38.383Z,4.50
2018-06-15T17:41:05.992Z,4.60
2018-06-15T17:43:33.561Z,5.15
2018-06-15T17:46:01.122Z,5.42
2018-06-15T17:48:29.051Z,5.40
2018-06-15T17:50:56.751Z,5.80
2018-06-15T17:53:24.417Z,5.17
2018-06-15T17:55:52.028Z,5.00
2018-06-15T17:58:19.588Z,5.87
2018-06-15T18:00:47.196Z,5.58
2018-06-15T18:03:14.770Z,6.15
2018-06-15T18:05:42.331Z,5.40
2018-06-15T18:08:09.899Z,5.70
2018-06-15T18:10:37.564Z,6.45
2018-06-15T18:13:05.170Z,6.20
2018-06-15T18:15:32.740Z,6.10
2018-06-15T18:18:00.524Z,5.72
2018-06-15T18:20:28.127Z,5.42
2018-06-15T18:22:55.962Z,6.05
2018-06-15T18:25:23.523Z,5.72
2018-06-15T18:27:51.106Z,5.55
2018-06-15T18:30:18.695Z,5.97
2018-06-15T18:32:46.274Z,6.37
2018-06-15T18:35:13.873Z,5.85
2018-06-15T18:37:41.466Z,5.95
2018-06-15T18:40:09.089Z,7.08
2018-06-15T18:42:36.659Z,5.97
2018-06-15T18:45:04.354Z,6.53
2018-06-15T18:47:32.235Z,6.50
2018-06-15T18:49:59.930Z,6.42
2018-06-15T18:52:27.472Z,6.72
2018-06-15T18:54:55.032Z,6.65
2018-06-15T18:57:22.605Z,6.55
2018-06-15T18:59:50.206Z,6.22
2018-06-15T19:02:17.773Z,6.53
2018-06-15T19:04:45.326Z,6.67
2018-06-15T19:07:12.899Z,7.25
2018-06-15T19:09:40.500Z,7.33
2018-06-15T19:12:08.111Z,7.30
2018-06-15T19:14:35.686Z,7.55
2018-06-15T19:17:03.286Z,7.70
2018-06-15T19:19:30.886Z,7.60
2018-06-15T19:21:58.486Z,7.50
2018-06-15T19:24:26.076Z,7.40
2018-06-15T19:26:53.703Z,7.72
2018-06-15T19:29:21.310Z,7.25
2018-06-15T19:31:48.883Z,8.05
2018-06-15T19:34:16.499Z,8.48
2018-06-15T19:36:44.100Z,7.85
2018-06-15T19:39:11.678Z,7.70
2018-06-15T19:41:39.342Z,8.13
2018-06-15T19:44:06.974Z,8.33
2018-06-15T19:46:34.655Z,8.63
2018-06-15T19:49:02.253Z,8.83
2018-06-15T19:51:29.901Z,9.08
2018-06-15T19:53:57.479Z,9.05
2018-06-15T19:56:25.098Z,9.60
2018-06-15T19:58:52.708Z,9.55
2018-06-15T20:01:20.624Z,9.15
2018-06-15T20:03:48.214Z,10.03
2018-06-15T20:06:15.916Z,9.90
2018-06-15T20:08:43.558Z,9.68
2018-06-15T20:11:11.138Z,9.95
2018-06-15T20:13:38.710Z,10.48
2018-06-15T20:16:06.302Z,10.10
2018-06-15T20:18:33.908Z,12.25
2018-06-15T20:21:01.496Z,12.28
2018-06-15T20:23:29.088Z,12.90
2018-06-15T20:25:56.810Z,11.63
2018-06-15T20:28:24.378Z,11.18
2018-06-15T20:30:52.023Z,10.43
2018-06-15T20:33:19.652Z,11.38
2018-06-15T20:35:47.214Z,11.53
2018-06-15T20:38:15.559Z,11.05
2018-06-15T20:40:43.214Z,10.85
2018-06-15T20:43:10.855Z,9.95
2018-06-15T20:45:38.440Z,10.15
2018-06-15T20:48:06.057Z,10.95
2018-06-15T20:50:33.654Z,9.45
2018-06-15T20:53:01.260Z,10.28
2018-06-15T20:55:28.994Z,10.10
2018-06-15T20:57:56.678Z,10.00
2018-06-15T21:00:24.251Z,11.28
2018-06-15T21:02:51.818Z,11.00
2018-06-15T21:05:19.434Z,11.00
2018-06-15T21:07:48.018Z,10.90
2018-06-15T21:10:15.626Z,10.60
2018-06-15T21:12:43.227Z,11.15
2018-06-15T21:15:10.838Z,10.58
2018-06-15T21:17:38.466Z,10.98
2018-06-15T21:20:06.030Z,10.90
2018-06-15T21:22:33.590Z,11.48
2018-06-15T21:25:01.193Z,11.73
2018-06-15T21:27:28.988Z,10.78
2018-06-15T21:29:56.669Z,11.75
2018-06-15T21:32:24.312Z,12.15
2018-06-15T21:34:51.878Z,11.10
2018-06-15T21:37:19.437Z,12.03
2018-06-15T21:39:47.038Z,12.75
2018-06-15T21:42:14.610Z,11.70
2018-06-15T21:44:42.226Z,12.07
2018-06-15T21:47:09.819Z,13.15
2018-06-15T21:49:37.411Z,12.80
2018-06-15T21:52:04.983Z,12.70
2018-06-15T21:54:32.582Z,11.83
2018-06-15T21:57:00.956Z,11.97
2018-06-15T21:59:28.938Z,12.60
2018-06-15T22:01:56.660Z,13.30
2018-06-15T22:04:25.326Z,12.43
2018-06-15T22:06:52.948Z,12.05
2018-06-15T22:09:20.559Z,12.45
2018-06-15T22:11:48.249Z,13.28
2018-06-15T22:14:16.906Z,12.70
2018-06-15T22:16:51.799Z,12.75
2018-06-15T22:19:21.351Z,12.28
2018-06-15T22:21:49.212Z,11.28
2018-06-15T22:24:16.819Z,11.93
2018-06-15T22:26:44.563Z,11.48
2018-06-15T22:29:12.135Z,11.22
2018-06-15T22:31:39.896Z,10.68
2018-06-15T22:34:07.478Z,10.93
2018-06-15T22:36:35.329Z,10.75
2018-06-15T22:39:03.059Z,10.25
2018-06-15T22:41:30.642Z,11.08
2018-06-15T22:43:58.275Z,10.90
2018-06-15T22:46:25.966Z,11.30
2018-06-15T22:48:53.546Z,10.68
2018-06-15T22:51:21.126Z,10.82
2018-06-15T22:53:48.738Z,10.60
2018-06-15T22:56:16.306Z,10.88
2018-06-15T22:58:44.236Z,10.68
2018-06-15T23:01:11.818Z,10.63
2018-06-15T23:03:39.394Z,9.78
2018-06-15T23:06:06.975Z,9.10
2018-06-15T23:08:34.635Z,9.03
2018-06-15T23:11:02.220Z,9.70
2018-06-15T23:13:29.823Z,8.68
2018-06-15T23:15:57.674Z,9.38
2018-06-15T23:18:25.243Z,9.68
2018-06-15T23:20:52.840Z,10.23
2018-06-15T23:23:20.434Z,10.25
2018-06-15T23:25:48.013Z,10.23
2018-06-15T23:28:15.653Z,10.23
2018-06-15T23:30:43.259Z,9.93
2018-06-15T23:33:10.822Z,9.40
2018-06-15T23:35:38.476Z,10.05
2018-06-15T23:38:06.104Z,9.68
2018-06-15T23:40:33.702Z,8.95
2018-06-15T23:43:01.319Z,9.78
2018-06-15T23:45:28.879Z,9.90
2018-06-15T23:47:56.522Z,9.80
2018-06-15T23:50:24.091Z,8.80
2018-06-15T23:52:52.187Z,9.23
2018-06-15T23:55:20.117Z,9.00
2018-06-15T23:57:47.694Z,8.80
